createdAt,value
2018-09-02T00:00:42.743Z,3.50
2018-09-02T00:01:42.745Z,3.60
2018-09-02T00:02:42.787Z,3.80
2018-09-02T00:03:42.773Z,3.70
2018-09-02T00:04:42.808Z,3.40
2018-09-02T00:05:42.808Z,3.40
2018-09-02T00:06:42.818Z,3.40
2018-09-02T00:07:42.863Z,3.60
2018-09-02T00:08:42.858Z,3.50
2018-09-02T00:09:42.862Z,3.50
2018-09-02T00:10:42.877Z,3.60
2018-09-02T00:11:42.892Z,3.30
2018-09-02T00:12:42.915Z,3.70
2018-09-02T00:13:42.922Z,3.40
2018-09-02T00:14:42.937Z,3.40
2018-09-02T00:15:42.952Z,3.70
2018-09-02T00:16:42.968Z,4.10
2018-09-02T00:17:42.984Z,4.20
2018-09-02T00:18:42.999Z,3.50
2018-09-02T00:19:43.016Z,3.60
2018-09-02T00:20:43.027Z,3.90
2018-09-02T00:21:43.043Z,3.90
2018-09-02T00:22:43.058Z,3.70
2018-09-02T00:23:43.072Z,3.70
2018-09-02T00:24:43.107Z,3.70
2018-09-02T00:25:43.113Z,3.70
2018-09-02T00:26:43.207Z,3.60
2018-09-02T00:27:43.144Z,3.80
2018-09-02T00:28:43.149Z,3.30
2018-09-02T00:29:43.242Z,3.80
2018-09-02T00:30:43.190Z,3.70
2018-09-02T00:31:43.205Z,3.50
2018-09-02T00:32:43.208Z,3.50
2018-09-02T00:33:43.267Z,4.20
2018-09-02T00:34:43.245Z,4.00
2018-09-02T00:35:43.253Z,3.90
2018-09-02T00:36:43.268Z,4.10
2018-09-02T00:37:43.285Z,3.70
2018-09-02T00:38:43.302Z,3.80
2018-09-02T00:39:43.419Z,3.60
2018-09-02T00:40:43.368Z,4.10
2018-09-02T00:41:43.479Z,4.00
2018-09-02T00:42:43.610Z,3.90
2018-09-02T00:43:43.376Z,3.70
2018-09-02T00:44:43.388Z,3.90
2018-09-02T00:45:43.404Z,3.90
2018-09-02T00:46:43.418Z,4.00
2018-09-02T00:47:43.436Z,4.20
2018-09-02T00:48:43.448Z,4.00
2018-09-02T00:49:43.462Z,4.50
2018-09-02T00:50:43.486Z,4.00
2018-09-02T00:51:43.494Z,4.10
2018-09-02T00:52:43.508Z,4.30
2018-09-02T00:53:43.523Z,3.90
2018-09-02T00:54:43.538Z,4.20
2018-09-02T00:55:43.552Z,4.30
2018-09-02T00:56:43.573Z,4.40
2018-09-02T00:57:43.583Z,3.90
2018-09-02T00:58:43.604Z,4.20
2018-09-02T00:59:43.613Z,4.40
2018-09-02T01:00:43.626Z,4.50
2018-09-02T01:01:43.647Z,4.50
2018-09-02T01:02:43.708Z,4.60
2018-09-02T01:03:43.678Z,4.80
2018-09-02T01:04:43.706Z,4.30
2018-09-02T01:05:43.722Z,4.40
2018-09-02T01:06:43.731Z,4.50
2018-09-02T01:07:43.733Z,4.40
2018-09-02T01:08:43.747Z,3.90
2018-09-02T01:09:43.773Z,4.90
2018-09-02T01:10:43.777Z,4.50
2018-09-02T01:11:43.800Z,4.60
2018-09-02T01:12:43.816Z,4.60
2018-09-02T01:13:43.822Z,4.70
2018-09-02T01:14:43.863Z,4.50
2018-09-02T01:15:43.851Z,4.90
2018-09-02T01:16:43.866Z,5.00
2018-09-02T01:17:43.886Z,4.90
2018-09-02T01:18:43.896Z,4.80
2018-09-02T01:19:46.598Z,4.70
2018-09-02T01:20:43.925Z,4.50
2018-09-02T01:21:43.939Z,4.60
2018-09-02T01:22:43.955Z,5.00
2018-09-02T01:23:43.972Z,4.70
2018-09-02T01:25:44.001Z,4.70
2018-09-02T01:26:44.017Z,4.70
2018-09-02T01:27:44.032Z,5.60
2018-09-02T01:28:44.047Z,5.20
2018-09-02T01:29:44.060Z,5.30
2018-09-02T01:30:44.075Z,5.10
2018-09-02T01:31:44.090Z,4.70
2018-09-02T01:32:44.105Z,5.00
2018-09-02T01:33:44.119Z,4.60
2018-09-02T01:34:44.216Z,5.00
2018-09-02T01:35:44.250Z,4.80
2018-09-02T01:36:44.163Z,5.20
2018-09-02T01:37:44.188Z,5.20
2018-09-02T01:38:44.314Z,4.90
2018-09-02T01:39:44.213Z,5.30
2018-09-02T01:40:44.220Z,5.10
2018-09-02T01:41:44.235Z,5.40
2018-09-02T01:42:44.258Z,5.30
2018-09-02T01:43:44.270Z,5.30
2018-09-02T01:44:44.280Z,4.90
2018-09-02T01:45:44.303Z,5.20
2018-09-02T01:46:44.308Z,5.20
2018-09-02T01:47:44.319Z,5.30
2018-09-02T01:48:44.334Z,5.20
2018-09-02T01:49:44.348Z,5.20
2018-09-02T01:50:44.363Z,5.70
2018-09-02T01:51:44.381Z,5.40
2018-09-02T01:52:44.391Z,5.40
2018-09-02T01:53:44.403Z,5.60
2018-09-02T01:54:44.420Z,5.50
2018-09-02T01:55:44.433Z,5.70
2018-09-02T01:56:44.449Z,5.40
2018-09-02T01:57:44.463Z,6.10
2018-09-02T01:58:44.477Z,5.60
2018-09-02T01:59:44.490Z,5.60
2018-09-02T02:00:44.512Z,5.50
2018-09-02T02:01:44.518Z,5.40
2018-09-02T02:02:44.539Z,5.50
2018-09-02T02:03:44.547Z,5.80
2018-09-02T02:04:44.648Z,5.40
2018-09-02T02:05:44.605Z,5.70
2018-09-02T02:06:44.592Z,5.40
2018-09-02T02:07:44.605Z,5.60
2018-09-02T02:08:44.620Z,5.70
2018-09-02T02:09:44.641Z,5.80
2018-09-02T02:10:44.672Z,6.40
2018-09-02T02:11:44.661Z,6.10
2018-09-02T02:12:44.675Z,5.70
2018-09-02T02:13:44.690Z,5.50
2018-09-02T02:14:44.802Z,6.00
2018-09-02T02:15:44.719Z,5.50
2018-09-02T02:16:44.751Z,6.10
2018-09-02T02:17:44.749Z,6.20
2018-09-02T02:18:44.782Z,6.30
2018-09-02T02:19:44.785Z,5.70
2018-09-02T02:20:44.792Z,6.40
2018-09-02T02:21:44.802Z,6.40
2018-09-02T02:22:44.816Z,6.00
2018-09-02T02:23:44.830Z,6.20
2018-09-02T02:24:44.844Z,6.20
2018-09-02T02:25:44.860Z,6.10
2018-09-02T02:26:44.871Z,6.20
2018-09-02T02:27:44.885Z,6.10
2018-09-02T02:28:44.900Z,6.40
2018-09-02T02:29:44.912Z,6.40
2018-09-02T02:30:44.930Z,6.70
2018-09-02T02:31:44.942Z,6.60
2018-09-02T02:32:44.957Z,6.90
2018-09-02T02:33:44.970Z,6.80
2018-09-02T02:34:44.987Z,6.50
2018-09-02T02:35:45.000Z,6.40
2018-09-02T02:36:45.012Z,6.90
2018-09-02T02:37:45.029Z,7.40
2018-09-02T02:38:45.088Z,7.10
2018-09-02T02:39:45.084Z,7.50
2018-09-02T02:40:45.069Z,7.30
2018-09-02T02:41:45.111Z,7.40
2018-09-02T02:42:45.156Z,7.40
2018-09-02T02:43:45.130Z,7.40
2018-09-02T02:44:45.151Z,7.00
2018-09-02T02:45:45.160Z,7.00
2018-09-02T02:46:45.153Z,7.40
2018-09-02T02:47:45.167Z,7.70
2018-09-02T02:48:45.180Z,7.60
2018-09-02T02:49:45.291Z,7.50
2018-09-02T02:50:45.220Z,7.70
2018-09-02T02:51:45.290Z,7.70
2018-09-02T02:52:45.279Z,7.40
2018-09-02T02:53:45.252Z,7.90
2018-09-02T02:54:45.263Z,7.30
2018-09-02T02:55:45.329Z,7.80
2018-09-02T02:56:45.292Z,7.80
2018-09-02T02:57:45.307Z,7.80
2018-09-02T02:58:45.318Z,7.80
2018-09-02T02:59:45.333Z,7.70
2018-09-02T03:00:45.348Z,8.00
2018-09-02T03:01:45.359Z,7.50
2018-09-02T03:02:45.375Z,7.80
2018-09-02T03:03:45.387Z,7.90
2018-09-02T03:04:45.405Z,7.70
2018-09-02T03:05:45.418Z,8.50
2018-09-02T03:06:45.431Z,7.90
2018-09-02T03:07:45.442Z,7.90
2018-09-02T03:08:45.463Z,8.20
2018-09-02T03:09:45.475Z,8.40
2018-09-02T03:10:45.536Z,8.20
2018-09-02T03:11:45.540Z,8.90
2018-09-02T03:12:45.588Z,8.30
2018-09-02T03:13:45.543Z,8.40
2018-09-02T03:14:45.629Z,8.40
2018-09-02T03:15:45.553Z,8.40
2018-09-02T03:16:45.571Z,8.50
2018-09-02T03:17:45.598Z,9.10
2018-09-02T03:18:45.602Z,8.20
2018-09-02T03:19:45.611Z,8.70
2018-09-02T03:20:45.629Z,8.80
2018-09-02T03:21:45.642Z,8.40
2018-09-02T03:22:45.665Z,8.80
2018-09-02T03:23:45.675Z,8.50
2018-09-02T03:24:45.685Z,8.70
2018-09-02T03:25:45.708Z,9.00
2018-09-02T03:26:45.710Z,9.20
2018-09-02T03:27:45.724Z,8.70
2018-09-02T03:28:45.739Z,8.60
2018-09-02T03:29:45.752Z,8.60
2018-09-02T03:30:45.778Z,8.00
2018-09-02T03:31:45.781Z,8.30
2018-09-02T03:32:45.797Z,9.10
2018-09-02T03:33:45.806Z,8.80
2018-09-02T03:34:45.820Z,8.70
2018-09-02T03:35:45.833Z,8.50
2018-09-02T03:36:45.849Z,9.10
2018-09-02T03:37:45.868Z,9.50
2018-09-02T03:38:45.887Z,9.10
2018-09-02T03:39:45.893Z,8.90
2018-09-02T03:40:45.948Z,9.20
2018-09-02T03:41:45.918Z,9.10
2018-09-02T03:42:45.934Z,8.90
2018-09-02T03:43:45.944Z,8.70
2018-09-02T03:44:45.964Z,9.60
2018-09-02T03:45:45.984Z,9.00
2018-09-02T03:46:46.059Z,9.30
2018-09-02T03:47:46.056Z,9.40
2018-09-02T03:48:46.563Z,9.60
2018-09-02T03:49:46.035Z,9.40
2018-09-02T03:50:46.042Z,9.40
2018-09-02T03:51:46.056Z,9.60
2018-09-02T03:52:46.073Z,9.60
2018-09-02T03:53:46.089Z,8.90
2018-09-02T03:54:46.133Z,9.90
2018-09-02T03:55:46.120Z,9.80
2018-09-02T03:56:46.129Z,9.70
2018-09-02T03:57:46.143Z,10.10
2018-09-02T03:58:46.173Z,9.50
2018-09-02T03:59:46.377Z,9.90
2018-09-02T04:00:46.183Z,9.70
2018-09-02T04:01:46.197Z,9.80
2018-09-02T04:02:46.217Z,9.60
2018-09-02T04:03:46.225Z,9.60
2018-09-02T04:04:46.238Z,9.80
2018-09-02T04:05:46.251Z,9.30
2018-09-02T04:06:46.265Z,9.30
2018-09-02T04:07:46.279Z,9.10
2018-09-02T04:08:46.293Z,9.70
2018-09-02T04:09:46.311Z,9.60
2018-09-02T04:10:46.323Z,10.10
2018-09-02T04:11:46.340Z,9.20
2018-09-02T04:12:46.354Z,9.50
2018-09-02T04:13:46.363Z,9.60
2018-09-02T04:14:46.377Z,9.70
2018-09-02T04:15:46.402Z,9.70
2018-09-02T04:16:46.405Z,10.20
2018-09-02T04:17:46.418Z,10.00
2018-09-02T04:18:46.558Z,9.80
2018-09-02T04:19:46.484Z,9.40
2018-09-02T04:20:46.525Z,10.20
2018-09-02T04:21:46.519Z,10.10
2018-09-02T04:22:46.490Z,9.70
2018-09-02T04:23:46.501Z,10.10
2018-09-02T04:24:46.518Z,10.20
2018-09-02T04:25:46.530Z,10.10
2018-09-02T04:26:46.570Z,10.10
2018-09-02T04:27:46.563Z,10.20
2018-09-02T04:28:46.685Z,10.20
2018-09-02T04:29:46.636Z,10.10
2018-09-02T04:30:46.605Z,10.80
2018-09-02T04:31:46.614Z,11.00
2018-09-02T04:32:46.642Z,10.50
2018-09-02T04:33:46.680Z,10.60
2018-09-02T04:34:46.656Z,10.30
2018-09-02T04:35:46.701Z,10.50
2018-09-02T04:36:46.689Z,10.80
2018-09-02T04:37:46.700Z,11.00
2018-09-02T04:38:46.711Z,11.60
2018-09-02T04:39:46.725Z,10.90
2018-09-02T04:40:46.738Z,11.30
2018-09-02T04:41:46.754Z,11.20
2018-09-02T04:42:46.767Z,11.40
2018-09-02T04:43:46.784Z,11.60
2018-09-02T04:44:46.801Z,11.50
2018-09-02T04:45:46.813Z,11.60
2018-09-02T04:46:46.826Z,12.00
2018-09-02T04:47:46.838Z,12.00
2018-09-02T04:48:46.853Z,11.10
2018-09-02T04:49:46.866Z,13.10
2018-09-02T04:50:46.893Z,11.60
2018-09-02T04:51:46.919Z,11.90
2018-09-02T04:52:46.935Z,12.00
2018-09-02T04:53:46.975Z,12.30
2018-09-02T04:54:46.935Z,12.00
2018-09-02T04:55:46.950Z,11.70
2018-09-02T04:56:46.963Z,12.10
2018-09-02T04:57:46.977Z,12.40
2018-09-02T04:58:46.991Z,12.30
2018-09-02T04:59:47.012Z,12.20
2018-09-02T05:00:47.020Z,12.50
2018-09-02T05:01:47.033Z,11.90
2018-09-02T05:02:47.089Z,12.80
2018-09-02T05:03:47.063Z,13.10
2018-09-02T05:04:47.244Z,13.10
2018-09-02T05:05:47.088Z,12.90
2018-09-02T05:06:47.113Z,12.60
2018-09-02T05:07:47.121Z,12.70
2018-09-02T05:08:47.129Z,12.00
2018-09-02T05:09:47.146Z,12.80
2018-09-02T05:10:47.157Z,12.50
2018-09-02T05:11:47.170Z,12.20
2018-09-02T05:12:47.187Z,12.70
2018-09-02T05:13:47.199Z,12.80
2018-09-02T05:14:47.213Z,12.10
2018-09-02T05:15:47.227Z,12.30
2018-09-02T05:16:47.240Z,13.00
2018-09-02T05:17:47.259Z,12.10
2018-09-02T05:18:47.267Z,12.70
2018-09-02T05:19:47.284Z,11.90
2018-09-02T05:20:47.299Z,12.70
2018-09-02T05:21:47.316Z,12.30
2018-09-02T05:22:47.329Z,12.50
2018-09-02T05:23:47.450Z,12.30
2018-09-02T05:24:47.352Z,12.40
2018-09-02T05:25:47.529Z,12.40
2018-09-02T05:26:47.403Z,12.40
2018-09-02T05:27:47.416Z,11.80
2018-09-02T05:28:47.410Z,12.20
2018-09-02T05:29:47.467Z,12.40
2018-09-02T05:30:47.440Z,12.70
2018-09-02T05:31:47.453Z,11.90
2018-09-02T05:32:47.474Z,12.00
2018-09-02T05:33:47.477Z,12.00
2018-09-02T05:34:47.488Z,12.20
2018-09-02T05:35:47.522Z,12.30
2018-09-02T05:36:47.600Z,12.10
2018-09-02T05:37:47.586Z,15.20
2018-09-02T05:38:47.547Z,15.10
2018-09-02T05:39:47.559Z,13.00
2018-09-02T05:40:47.574Z,11.90
2018-09-02T05:41:47.591Z,12.10
2018-09-02T05:42:47.599Z,12.10
2018-09-02T05:43:47.649Z,11.90
2018-09-02T05:44:47.630Z,12.30
2018-09-02T05:45:47.649Z,12.00
2018-09-02T05:46:47.649Z,11.60
2018-09-02T05:47:47.662Z,11.90
2018-09-02T05:48:47.678Z,12.30
2018-09-02T05:49:47.690Z,11.80
2018-09-02T05:50:47.707Z,12.00
2018-09-02T05:51:47.718Z,12.10
2018-09-02T05:52:47.733Z,11.60
2018-09-02T05:53:47.748Z,12.00
2018-09-02T05:54:47.763Z,11.60
2018-09-02T05:55:47.772Z,11.90
2018-09-02T05:56:47.794Z,11.20
2018-09-02T05:57:47.801Z,11.70
2018-09-02T05:58:47.818Z,11.00
2018-09-02T05:59:47.838Z,11.60
2018-09-02T06:00:47.922Z,11.70
2018-09-02T06:01:47.877Z,10.80
2018-09-02T06:02:47.913Z,11.30
2018-09-02T06:03:47.889Z,11.90
2018-09-02T06:04:47.900Z,11.40
2018-09-02T06:05:47.917Z,10.50
2018-09-02T06:06:47.929Z,11.10
2018-09-02T06:07:47.947Z,11.00
2018-09-02T06:08:47.976Z,10.80
2018-09-02T06:09:47.971Z,11.30
2018-09-02T06:10:47.981Z,10.80
2018-09-02T06:11:48.002Z,11.00
2018-09-02T06:12:48.010Z,11.30
2018-09-02T06:13:48.026Z,11.40
2018-09-02T06:14:48.037Z,10.60
2018-09-02T06:15:48.053Z,11.40
2018-09-02T06:16:48.072Z,10.40
2018-09-02T06:17:48.085Z,10.60
2018-09-02T06:18:48.094Z,10.60
2018-09-02T06:19:48.114Z,11.10
2018-09-02T06:20:48.124Z,10.50
2018-09-02T06:21:48.138Z,10.20
2018-09-02T06:22:48.150Z,10.00
2018-09-02T06:23:48.168Z,10.20
2018-09-02T06:24:48.181Z,10.20
2018-09-02T06:25:48.192Z,9.90
2018-09-02T06:26:48.206Z,10.00
2018-09-02T06:27:48.221Z,9.50
2018-09-02T06:28:48.291Z,9.10
2018-09-02T06:29:48.258Z,9.10
2018-09-02T06:30:48.261Z,8.90
2018-09-02T06:31:48.277Z,8.80
2018-09-02T06:32:48.357Z,9.40
2018-09-02T06:33:48.321Z,9.60
2018-09-02T06:34:48.330Z,9.30
2018-09-02T06:35:48.342Z,8.70
2018-09-02T06:36:48.352Z,9.20
2018-09-02T06:37:48.366Z,9.00
2018-09-02T06:38:48.375Z,9.30
2018-09-02T06:39:48.389Z,9.00
2018-09-02T06:40:48.414Z,8.60
2018-09-02T06:41:48.421Z,8.30
2018-09-02T06:42:48.445Z,8.50
2018-09-02T06:43:48.467Z,8.10
2018-09-02T06:44:48.461Z,12.50
2018-09-02T06:45:48.621Z,8.70
2018-09-02T06:46:48.489Z,7.70
2018-09-02T06:47:48.507Z,7.80
2018-09-02T06:48:48.527Z,7.70
2018-09-02T06:49:48.531Z,7.60
2018-09-02T06:50:48.551Z,7.60
2018-09-02T06:51:48.563Z,6.90
2018-09-02T06:52:48.640Z,7.10
2018-09-02T06:53:48.640Z,6.90
2018-09-02T06:54:48.602Z,6.90
2018-09-02T06:55:48.640Z,6.70
2018-09-02T06:56:48.721Z,6.40
2018-09-02T06:57:48.646Z,6.50
2018-09-02T06:58:48.665Z,6.90
2018-09-02T06:59:48.674Z,6.40
2018-09-02T07:00:48.689Z,6.50
2018-09-02T07:01:48.703Z,6.40
2018-09-02T07:02:48.721Z,6.00
2018-09-02T07:03:48.732Z,6.40
2018-09-02T07:04:48.746Z,6.50
2018-09-02T07:05:49.362Z,6.60
2018-09-02T07:06:48.844Z,6.20
2018-09-02T07:07:48.788Z,6.20
2018-09-02T07:08:48.860Z,5.60
2018-09-02T07:09:48.821Z,5.70
2018-09-02T07:10:48.830Z,5.70
2018-09-02T07:11:48.847Z,5.80
2018-09-02T07:12:48.860Z,5.70
2018-09-02T07:13:48.879Z,6.70
2018-09-02T07:14:48.893Z,5.60
2018-09-02T07:15:48.908Z,5.80
2018-09-02T07:16:48.940Z,5.90
2018-09-02T07:17:48.944Z,5.50
2018-09-02T07:18:48.945Z,5.40
2018-09-02T07:19:48.960Z,5.90
2018-09-02T07:20:49.004Z,5.70
2018-09-02T07:21:48.990Z,5.30
2018-09-02T07:22:49.002Z,5.70
2018-09-02T07:23:49.021Z,5.20
2018-09-02T07:24:49.033Z,5.90
2018-09-02T07:25:49.049Z,5.40
2018-09-02T07:26:49.069Z,5.50
2018-09-02T07:27:49.075Z,5.90
2018-09-02T07:28:49.098Z,5.30
2018-09-02T07:29:49.109Z,5.40
2018-09-02T07:30:49.120Z,5.60
2018-09-02T07:31:49.138Z,5.20
2018-09-02T07:32:49.152Z,5.10
2018-09-02T07:33:49.163Z,5.30
2018-09-02T07:34:49.179Z,5.30
2018-09-02T07:35:49.191Z,5.20
2018-09-02T07:36:49.216Z,4.90
2018-09-02T07:37:49.254Z,5.20
2018-09-02T07:38:49.234Z,4.80
2018-09-02T07:39:49.248Z,4.60
2018-09-02T07:40:49.318Z,5.20
2018-09-02T07:41:49.941Z,4.70
2018-09-02T07:42:49.298Z,4.70
2018-09-02T07:43:49.339Z,4.70
2018-09-02T07:44:49.332Z,4.60
2018-09-02T07:45:49.335Z,4.70
2018-09-02T07:46:49.353Z,4.40
2018-09-02T07:47:49.366Z,4.40
2018-09-02T07:48:49.386Z,5.00
2018-09-02T07:49:49.402Z,4.60
2018-09-02T07:50:49.748Z,4.70
2018-09-02T07:51:49.423Z,4.60
2018-09-02T07:52:49.441Z,4.10
2018-09-02T07:53:49.460Z,4.40
2018-09-02T07:54:49.468Z,4.40
2018-09-02T07:55:49.483Z,4.20
2018-09-02T07:56:49.504Z,4.30
2018-09-02T07:57:49.511Z,4.40
2018-09-02T07:58:49.528Z,4.00
2018-09-02T07:59:49.545Z,4.00
2018-09-02T08:00:49.558Z,4.30
2018-09-02T08:01:49.579Z,4.60
2018-09-02T08:02:49.725Z,4.00
2018-09-02T08:03:49.603Z,4.20
2018-09-02T08:04:49.615Z,4.20
2018-09-02T08:05:49.633Z,4.40
2018-09-02T08:06:49.645Z,5.50
2018-09-02T08:07:49.661Z,4.50
2018-09-02T08:08:49.681Z,4.50
2018-09-02T08:09:49.690Z,4.10
2018-09-02T08:10:49.701Z,4.30
2018-09-02T08:11:49.716Z,4.30
2018-09-02T08:12:49.874Z,4.10
2018-09-02T08:13:49.784Z,4.00
2018-09-02T08:14:49.830Z,4.40
2018-09-02T08:15:49.777Z,4.30
2018-09-02T08:16:49.798Z,4.00
2018-09-02T08:17:49.807Z,3.60
2018-09-02T08:18:49.830Z,4.00
2018-09-02T08:19:49.844Z,3.70
2018-09-02T08:20:49.856Z,3.90
2018-09-02T08:21:49.876Z,3.50
2018-09-02T08:22:49.947Z,3.40
2018-09-02T08:23:49.908Z,3.70
2018-09-02T08:24:49.919Z,3.40
2018-09-02T08:25:49.924Z,3.40
2018-09-02T08:26:49.939Z,3.80
2018-09-02T08:27:49.958Z,3.40
2018-09-02T08:28:49.968Z,3.70
2018-09-02T08:29:50.002Z,3.30
2018-09-02T08:30:49.997Z,3.20
2018-09-02T08:31:50.012Z,3.40
2018-09-02T08:32:50.034Z,3.10
2018-09-02T08:33:50.046Z,3.50
2018-09-02T08:34:50.068Z,3.20
2018-09-02T08:35:50.071Z,3.60
2018-09-02T08:36:50.089Z,3.60
2018-09-02T08:37:50.103Z,3.00
2018-09-02T08:38:50.166Z,3.40
2018-09-02T08:39:50.129Z,3.10
2018-09-02T08:40:50.146Z,3.30
2018-09-02T08:41:50.160Z,3.30
2018-09-02T08:42:50.173Z,3.10
2018-09-02T08:43:50.189Z,3.20
2018-09-02T08:44:50.224Z,3.30
2018-09-02T08:45:50.227Z,3.10
2018-09-02T08:46:50.250Z,3.50
2018-09-02T08:47:50.353Z,3.20
2018-09-02T08:48:50.306Z,3.30
2018-09-02T08:49:50.277Z,3.00
2018-09-02T08:50:50.292Z,3.10
2018-09-02T08:51:50.375Z,3.00
2018-09-02T08:52:50.385Z,3.30
2018-09-02T08:53:50.385Z,3.00
2018-09-02T08:54:50.356Z,3.30
2018-09-02T08:55:50.378Z,3.10
2018-09-02T08:56:50.417Z,3.50
2018-09-02T08:57:50.551Z,3.00
2018-09-02T08:58:50.414Z,2.70
2018-09-02T08:59:50.428Z,3.00
2018-09-02T09:00:50.447Z,3.10
2018-09-02T09:01:50.549Z,3.20
2018-09-02T09:02:50.490Z,3.20
2018-09-02T09:03:50.489Z,2.80
2018-09-02T09:04:50.510Z,2.90
2018-09-02T09:05:50.522Z,2.70
2018-09-02T09:06:50.530Z,2.80
2018-09-02T09:07:50.696Z,2.60
2018-09-02T09:08:50.801Z,2.90
2018-09-02T09:09:50.582Z,2.60
2018-09-02T09:10:50.602Z,2.90
2018-09-02T09:11:50.607Z,2.60
2018-09-02T09:12:50.631Z,2.60
2018-09-02T09:13:50.641Z,2.40
2018-09-02T09:14:50.665Z,2.60
2018-09-02T09:15:50.674Z,2.60
2018-09-02T09:16:50.855Z,2.50
2018-09-02T09:17:50.717Z,2.60
2018-09-02T09:18:50.734Z,2.50
2018-09-02T09:19:50.786Z,2.50
2018-09-02T09:20:50.798Z,2.40
2018-09-02T09:21:50.757Z,2.40
2018-09-02T09:22:50.795Z,2.60
2018-09-02T09:23:50.871Z,2.50
2018-09-02T09:24:50.840Z,2.50
2018-09-02T09:25:50.831Z,2.20
2018-09-02T09:26:50.865Z,2.50
2018-09-02T09:27:51.017Z,2.20
2018-09-02T09:28:50.920Z,2.10
2018-09-02T09:29:50.880Z,2.50
2018-09-02T09:30:50.893Z,2.40
2018-09-02T09:31:50.911Z,2.40
2018-09-02T09:32:50.929Z,2.00
2018-09-02T09:33:50.938Z,2.10
2018-09-02T09:34:50.968Z,2.70
2018-09-02T09:35:50.970Z,2.30
2018-09-02T09:36:50.996Z,2.40
2018-09-02T09:37:51.002Z,3.20
2018-09-02T09:38:51.013Z,2.50
2018-09-02T09:39:51.027Z,2.30
2018-09-02T09:40:51.044Z,2.20
2018-09-02T09:41:51.059Z,2.20
2018-09-02T09:42:51.073Z,2.60
2018-09-02T09:43:51.089Z,2.70
2018-09-02T09:44:51.113Z,2.20
2018-09-02T09:45:51.207Z,2.50
2018-09-02T09:46:51.134Z,2.30
2018-09-02T09:47:51.162Z,2.30
2018-09-02T09:48:51.165Z,2.50
2018-09-02T09:49:51.273Z,2.20
2018-09-02T09:50:51.214Z,2.90
2018-09-02T09:51:51.284Z,2.40
2018-09-02T09:52:51.328Z,2.50
2018-09-02T09:53:51.253Z,2.50
2018-09-02T09:54:51.254Z,2.40
2018-09-02T09:55:51.312Z,2.80
2018-09-02T09:56:51.317Z,2.60
2018-09-02T09:57:51.357Z,2.10
2018-09-02T09:58:51.333Z,2.70
2018-09-02T09:59:51.364Z,2.40
2018-09-02T10:00:51.400Z,2.50
2018-09-02T10:01:51.382Z,2.70
2018-09-02T10:02:51.399Z,2.70
2018-09-02T10:03:51.417Z,2.50
2018-09-02T10:04:51.408Z,2.70
2018-09-02T10:05:51.421Z,2.60
2018-09-02T10:06:51.439Z,2.50
2018-09-02T10:07:51.460Z,2.50
2018-09-02T10:08:51.468Z,2.50
2018-09-02T10:09:51.521Z,2.50
2018-09-02T10:10:51.497Z,2.60
2018-09-02T10:11:51.574Z,2.20
2018-09-02T10:12:51.531Z,2.40
2018-09-02T10:13:51.547Z,2.20
2018-09-02T10:14:51.560Z,2.60
2018-09-02T10:15:51.651Z,2.80
2018-09-02T10:16:51.593Z,2.50
2018-09-02T10:17:51.608Z,2.70
2018-09-02T10:18:51.620Z,2.60
2018-09-02T10:19:51.661Z,2.70
2018-09-02T10:20:51.657Z,2.50
2018-09-02T10:21:51.670Z,2.30
2018-09-02T10:22:51.682Z,2.30
2018-09-02T10:23:51.758Z,2.50
2018-09-02T10:24:51.746Z,2.60
2018-09-02T10:25:51.753Z,2.60
2018-09-02T10:26:51.755Z,2.40
2018-09-02T10:27:51.762Z,2.50
2018-09-02T10:28:51.773Z,2.30
2018-09-02T10:29:51.789Z,2.50
2018-09-02T10:30:51.825Z,2.50
2018-09-02T10:31:51.833Z,2.30
2018-09-02T10:32:51.899Z,2.40
2018-09-02T10:33:51.853Z,2.70
2018-09-02T10:34:51.873Z,2.40
2018-09-02T10:35:51.932Z,2.50
2018-09-02T10:36:52.308Z,2.60
2018-09-02T10:37:52.273Z,2.50
2018-09-02T10:38:51.929Z,2.50
2018-09-02T10:39:51.946Z,2.30
2018-09-02T10:40:51.964Z,2.40
2018-09-02T10:41:51.973Z,2.30
2018-09-02T10:42:51.995Z,2.40
2018-09-02T10:43:52.025Z,2.10
2018-09-02T10:44:52.033Z,2.50
2018-09-02T10:45:52.045Z,2.30
2018-09-02T10:46:52.054Z,2.40
2018-09-02T10:47:52.068Z,2.60
2018-09-02T10:48:52.091Z,2.30
2018-09-02T10:49:52.106Z,2.30
2018-09-02T10:50:52.114Z,2.40
2018-09-02T10:51:52.141Z,2.30
2018-09-02T10:52:52.158Z,2.20
2018-09-02T10:53:52.177Z,2.30
2018-09-02T10:54:52.188Z,2.40
2018-09-02T10:55:52.214Z,2.50
2018-09-02T10:56:52.212Z,2.60
2018-09-02T10:57:52.227Z,2.40
2018-09-02T10:58:52.239Z,2.40
2018-09-02T10:59:52.265Z,2.50
2018-09-02T11:00:52.279Z,2.70
2018-09-02T11:01:52.287Z,2.70
2018-09-02T11:02:52.322Z,2.40
2018-09-02T11:03:52.340Z,2.40
2018-09-02T11:04:52.388Z,2.50
2018-09-02T11:05:52.359Z,2.80
2018-09-02T11:06:52.391Z,2.40
2018-09-02T11:07:52.683Z,2.60
2018-09-02T11:08:52.418Z,2.70
2018-09-02T11:09:52.408Z,3.00
2018-09-02T11:10:52.426Z,2.40
2018-09-02T11:11:52.455Z,2.40
2018-09-02T11:12:52.476Z,2.70
2018-09-02T11:13:52.689Z,2.50
2018-09-02T11:14:52.488Z,2.50
2018-09-02T11:15:52.497Z,2.60
2018-09-02T11:16:52.515Z,2.10
2018-09-02T11:17:52.534Z,2.40
2018-09-02T11:18:52.550Z,2.30
2018-09-02T11:19:52.565Z,2.50
2018-09-02T11:20:52.576Z,2.50
2018-09-02T11:21:52.610Z,2.40
2018-09-02T11:22:52.607Z,2.20
2018-09-02T11:23:52.626Z,2.10
2018-09-02T11:24:52.642Z,2.50
2018-09-02T11:25:52.659Z,2.30
2018-09-02T11:26:52.671Z,2.00
2018-09-02T11:27:52.707Z,2.60
2018-09-02T11:28:52.780Z,2.20
2018-09-02T11:29:52.742Z,2.20
2018-09-02T11:30:52.758Z,2.60
2018-09-02T11:31:52.805Z,2.50
2018-09-02T11:32:52.770Z,2.50
2018-09-02T11:33:52.882Z,2.70
2018-09-02T11:34:52.826Z,2.10
2018-09-02T11:35:52.857Z,2.50
2018-09-02T11:36:52.826Z,2.60
2018-09-02T11:37:52.849Z,2.40
2018-09-02T11:38:52.858Z,2.50
2018-09-02T11:39:52.867Z,2.40
2018-09-02T11:40:52.886Z,2.80
2018-09-02T11:41:52.904Z,2.20
2018-09-02T11:42:52.914Z,2.20
2018-09-02T11:43:52.944Z,2.40
2018-09-02T11:44:52.947Z,2.50
2018-09-02T11:45:52.963Z,2.60
2018-09-02T11:46:53.041Z,2.50
2018-09-02T11:47:53.001Z,2.60
2018-09-02T11:48:53.017Z,2.50
2018-09-02T11:49:53.036Z,2.40
2018-09-02T11:50:53.039Z,2.40
2018-09-02T11:51:53.074Z,2.50
2018-09-02T11:52:53.079Z,2.20
2018-09-02T11:53:53.091Z,2.30
2018-09-02T11:54:53.115Z,2.40
2018-09-02T11:55:53.127Z,2.40
2018-09-02T11:56:53.148Z,2.40
2018-09-02T11:57:53.195Z,2.60
2018-09-02T11:58:53.187Z,2.40
2018-09-02T11:59:53.239Z,2.40
2018-09-02T12:00:53.268Z,2.30
2018-09-02T12:01:53.218Z,2.40
2018-09-02T12:02:53.227Z,2.40
2018-09-02T12:03:53.260Z,2.40
2018-09-02T12:04:53.344Z,2.30
2018-09-02T12:05:53.293Z,2.50
2018-09-02T12:06:53.377Z,2.10
2018-09-02T12:07:53.352Z,2.50
2018-09-02T12:08:53.328Z,2.30
2018-09-02T12:09:53.357Z,2.20
2018-09-02T12:10:53.395Z,2.50
2018-09-02T12:11:53.386Z,2.30
2018-09-02T12:12:53.385Z,2.50
2018-09-02T12:13:53.423Z,2.60
2018-09-02T12:14:53.618Z,2.30
2018-09-02T12:15:53.429Z,2.70
2018-09-02T12:16:53.446Z,2.30
2018-09-02T12:17:53.479Z,2.50
2018-09-02T12:18:53.477Z,2.60
2018-09-02T12:19:53.491Z,2.40
2018-09-02T12:20:53.520Z,2.70
2018-09-02T12:21:53.526Z,2.60
2018-09-02T12:22:53.540Z,2.40
2018-09-02T12:23:53.561Z,2.30
2018-09-02T12:24:53.573Z,2.20
2018-09-02T12:25:53.589Z,2.40
2018-09-02T12:26:53.604Z,2.30
2018-09-02T12:27:53.626Z,2.30
2018-09-02T12:28:53.638Z,2.50
2018-09-02T12:29:53.649Z,2.60
2018-09-02T12:30:53.667Z,2.30
2018-09-02T12:31:53.711Z,2.60
2018-09-02T12:32:53.700Z,2.30
2018-09-02T12:33:53.810Z,2.60
2018-09-02T12:34:53.766Z,2.40
2018-09-02T12:35:53.841Z,2.20
2018-09-02T12:36:53.758Z,2.30
2018-09-02T12:37:53.770Z,2.50
2018-09-02T12:38:53.785Z,2.20
2018-09-02T12:39:53.807Z,2.20
2018-09-02T12:40:53.824Z,2.40
2018-09-02T12:41:53.893Z,2.40
2018-09-02T12:42:53.902Z,2.60
2018-09-02T12:43:53.865Z,2.40
2018-09-02T12:44:53.904Z,2.60
2018-09-02T12:45:53.896Z,2.00
2018-09-02T12:46:53.913Z,2.10
2018-09-02T12:47:54.003Z,2.40
2018-09-02T12:48:53.944Z,2.30
2018-09-02T12:49:53.960Z,2.20
2018-09-02T12:50:53.976Z,2.40
2018-09-02T12:51:53.991Z,2.40
2018-09-02T12:52:54.011Z,2.60
2018-09-02T12:53:54.029Z,2.50
2018-09-02T12:54:54.043Z,2.40
2018-09-02T12:55:54.069Z,2.60
2018-09-02T12:56:54.073Z,2.10
2018-09-02T12:57:54.093Z,2.60
2018-09-02T12:58:54.119Z,2.70
2018-09-02T12:59:54.120Z,2.30
2018-09-02T13:00:54.137Z,2.40
2018-09-02T13:01:54.154Z,2.50
2018-09-02T13:02:54.303Z,2.50
2018-09-02T13:03:54.185Z,2.40
2018-09-02T13:04:54.203Z,2.50
2018-09-02T13:06:54.264Z,2.30
2018-09-02T13:07:54.248Z,2.50
2018-09-02T13:08:54.270Z,2.40
2018-09-02T13:09:54.289Z,2.40
2018-09-02T13:10:54.396Z,2.20
2018-09-02T13:11:54.325Z,2.70
2018-09-02T13:12:54.329Z,2.40
2018-09-02T13:13:54.388Z,2.30
2018-09-02T13:14:54.373Z,2.50
2018-09-02T13:15:54.377Z,2.30
2018-09-02T13:16:54.404Z,1.90